Time;durP1;ratioP1;P1;durP2;ratioP2;P2;SDS_P1;SDS_P2;PMS_P1;PMS_P2;Temp;Humidity;BMP_temperature;BMP_pressure;BME280_temperature;BME280_humidity;BME280_pressure;Samples;Min_cycle;Max_cycle;Signal;HPM_P1;HPM_P2
2021/05/02 00:00:38;;;;;;;12.30;5.93;;;;;;;;;;4975183;28;20473;-76
2021/05/02 00:03:05;;;;;;;9.67;5.80;;;11.70;1.00;;;;;;4995179;28;20428;-76
2021/05/02 00:05:34;;;;;;;12.10;6.20;;;11.60;1.00;;;;;;4994823;28;20520;-76
2021/05/02 00:08:03;;;;;;;18.40;6.07;;;11.60;1.00;;;;;;4976452;28;20409;-76
2021/05/02 00:10:32;;;;;;;9.50;5.67;;;11.60;1.00;;;;;;4976096;28;20437;-76
2021/05/02 00:13:03;;;;;;;11.80;5.90;;;11.60;1.00;;;;;;4974871;28;20484;-76
2021/05/02 00:15:31;;;;;;;7.20;5.10;;;11.40;1.00;;;;;;4988474;28;20747;-76
2021/05/02 00:17:57;;;;;;;9.20;5.43;;;;;;;;;;4994086;28;20468;-76
2021/05/02 00:20:24;;;;;;;9.10;5.57;;;;;;;;;;4994684;28;20393;-76
2021/05/02 00:23:13;;;;;;;12.83;5.90;;;;;;;;;;4995187;28;20801;-76
2021/05/02 00:25:39;;;;;;;10.50;5.70;;;;;;;;;;4994010;28;20469;-77
2021/05/02 00:28:08;;;;;;;13.23;6.20;;;11.60;1.00;;;;;;5005647;28;20482;-76
2021/05/02 00:30:44;;;;;;;7.50;4.90;;;11.30;1.00;;;;;;4985395;28;20427;-76
2021/05/02 00:33:11;;;;;;;9.37;5.63;;;11.20;1.00;;;;;;4987526;28;20424;-76
2021/05/02 00:35:38;;;;;;;9.10;5.83;;;11.30;1.00;;;;;;4994635;28;20416;-77
2021/05/02 00:38:04;;;;;;;8.37;4.97;;;11.30;1.00;;;;;;4995022;28;20432;-76
2021/05/02 00:40:39;;;;;;;7.70;5.50;;;11.20;1.00;;;;;;4995474;28;20427;-76
2021/05/02 00:43:12;;;;;;;8.10;5.00;;;11.30;1.00;;;;;;4989944;28;20219;-76
2021/05/02 00:45:48;;;;;;;9.40;5.70;;;11.70;1.00;;;;;;4994402;28;20809;-76
2021/05/02 00:48:55;;;;;;;12.50;5.00;;;11.40;1.00;;;;;;4994398;28;20421;-76
2021/05/02 00:51:27;;;;;;;9.50;5.10;;;11.40;1.00;;;;;;4972829;28;20592;-76
2021/05/02 00:54:09;;;;;;;8.53;5.50;;;;;;;;;;4973691;28;20499;-76
2021/05/02 00:57:08;;;;;;;7.73;5.20;;;11.30;1.00;;;;;;4973457;28;20772;-76
2021/05/02 00:59:54;;;;;;;8.77;5.20;;;11.40;1.00;;;;;;4936410;29;20419;-76
2021/05/02 01:02:28;;;;;;;8.10;4.90;;;11.40;1.00;;;;;;4953852;29;20509;-76
2021/05/02 01:04:59;;;;;;;12.33;5.40;;;11.30;1.00;;;;;;4953533;28;20414;-76
2021/05/02 01:07:33;;;;;;;9.27;5.63;;;11.30;1.00;;;;;;4953771;29;20658;-76
2021/05/02 01:10:18;;;;;;;13.73;6.13;;;11.10;1.00;;;;;;4953777;29;20458;-75
2021/05/02 01:12:50;;;;;;;9.60;5.60;;;;;;;;;;4953895;29;20437;-75
2021/05/02 01:15:38;;;;;;;11.00;5.80;;;11.00;1.00;;;;;;4948207;28;20971;-75
2021/05/02 01:18:08;;;;;;;9.33;5.80;;;11.00;1.00;;;;;;4953865;29;20790;-75
2021/05/02 01:20:41;;;;;;;9.80;5.50;;;11.00;1.00;;;;;;4953086;29;20435;-75
2021/05/02 01:23:19;;;;;;;10.73;5.50;;;;;;;;;;4943553;29;20439;-75
2021/05/02 01:25:45;;;;;;;10.90;5.00;;;;;;;;;;4934379;29;20475;-75
2021/05/02 01:28:14;;;;;;;13.83;5.00;;;;;;;;;;4959575;28;20830;-76
2021/05/02 01:30:41;;;;;;;8.07;5.77;;;;;;;;;;4989653;28;20527;-75
2021/05/02 01:33:07;;;;;;;9.00;5.67;;;;;;;;;;4994456;28;20393;-75
2021/05/02 01:35:44;;;;;;;9.50;5.80;;;;;;;;;;4992808;28;20443;-75
2021/05/02 01:38:10;;;;;;;9.63;5.73;;;11.00;1.00;;;;;;4994392;28;20401;-75
2021/05/02 01:40:36;;;;;;;10.00;5.80;;;;;;;;;;4994413;28;20860;-75
2021/05/02 01:43:02;;;;;;;9.10;5.90;;;11.30;1.00;;;;;;4994215;28;20417;-75
2021/05/02 01:45:31;;;;;;;7.53;5.47;;;11.10;1.00;;;;;;4994206;28;20433;-75
2021/05/02 01:48:08;;;;;;;9.10;5.70;;;11.10;1.00;;;;;;4994220;28;20193;-76
2021/05/02 01:50:40;;;;;;;9.13;5.40;;;11.00;1.00;;;;;;4994275;28;20407;-75
2021/05/02 01:53:38;;;;;;;12.60;5.53;;;11.00;1.00;;;;;;4994534;28;20813;-75
2021/05/02 01:56:08;;;;;;;7.40;5.27;;;11.00;1.00;;;;;;4994212;28;20443;-76
2021/05/02 01:58:44;;;;;;;6.93;5.20;;;10.90;1.00;;;;;;4993640;28;20417;-76
2021/05/02 02:01:37;;;;;;;8.07;4.87;;;10.80;1.00;;;;;;4994111;28;20393;-76
2021/05/02 02:04:05;;;;;;;6.50;4.93;;;11.00;1.00;;;;;;4993842;28;20404;-76
2021/05/02 02:06:40;;;;;;;8.40;4.73;;;10.90;1.00;;;;;;4994191;28;20511;-76
2021/05/02 02:09:08;;;;;;;6.90;4.80;;;10.90;1.00;;;;;;4994141;28;20425;-75
2021/05/02 02:11:35;;;;;;;9.10;5.30;;;10.90;1.00;;;;;;4993878;28;20515;-75
2021/05/02 02:14:08;;;;;;;11.03;5.90;;;;;;;;;;4991242;28;20815;-75
2021/05/02 02:16:42;;;;;;;17.27;5.23;;;10.90;1.00;;;;;;4986684;28;20919;-75
2021/05/02 02:19:14;;;;;;;8.33;4.73;;;;;;;;;;4997142;28;20445;-75
2021/05/02 02:21:44;;;;;;;6.93;4.70;;;;;;;;;;4997100;28;20419;-75
2021/05/02 02:24:12;;;;;;;10.47;5.47;;;10.70;1.00;;;;;;4984084;28;20882;-75
2021/05/02 02:26:49;;;;;;;8.57;5.30;;;10.70;1.00;;;;;;4997258;28;20472;-75
2021/05/02 02:29:16;;;;;;;13.97;5.80;;;10.60;1.00;;;;;;4997261;28;20404;-75
2021/05/02 02:31:46;;;;;;;7.90;5.03;;;10.60;1.00;;;;;;4997159;28;20899;-75
2021/05/02 02:34:14;;;;;;;9.90;5.50;;;10.60;1.00;;;;;;4997174;28;20412;-75
2021/05/02 02:36:44;;;;;;;7.30;4.70;;;;;;;;;;4997220;28;20397;-75
2021/05/02 02:39:10;;;;;;;8.10;5.17;;;10.60;1.00;;;;;;4997089;28;20892;-75
2021/05/02 02:41:40;;;;;;;9.53;5.43;;;10.60;1.00;;;;;;4997120;28;20397;-75
2021/05/02 02:44:16;;;;;;;17.93;5.33;;;10.60;1.00;;;;;;4996367;28;20416;-75
2021/05/02 02:46:47;;;;;;;13.00;5.50;;;10.50;1.00;;;;;;4996892;28;20451;-75
2021/05/02 02:49:15;;;;;;;10.73;5.43;;;10.60;1.00;;;;;;4996893;28;20423;-75
2021/05/02 02:51:52;;;;;;;8.40;5.00;;;10.50;1.00;;;;;;4996559;28;20412;-75
2021/05/02 02:54:22;;;;;;;8.37;4.83;;;10.50;1.00;;;;;;4977936;28;20409;-75
2021/05/02 02:56:56;;;;;;;8.90;5.30;;;10.50;1.00;;;;;;4982500;28;20425;-75
2021/05/02 02:59:36;;;;;;;9.00;5.17;;;10.50;1.00;;;;;;4996781;28;20415;-75
2021/05/02 03:02:05;;;;;;;13.40;5.33;;;10.40;1.00;;;;;;4996780;28;20435;-75
2021/05/02 03:04:34;;;;;;;9.67;5.63;;;10.40;1.00;;;;;;4996690;28;20487;-75
2021/05/02 03:07:00;;;;;;;14.60;5.67;;;10.40;1.00;;;;;;4995183;28;20464;-75
2021/05/02 03:09:27;;;;;;;10.60;5.33;;;;;;;;;;4995690;28;20507;-75
2021/05/02 03:11:56;;;;;;;11.93;5.90;;;10.50;1.00;;;;;;4996123;28;20417;-75
2021/05/02 03:14:22;;;;;;;9.00;5.47;;;10.50;1.00;;;;;;4992522;28;20999;-75
2021/05/02 03:16:50;;;;;;;9.73;5.73;;;10.70;1.00;;;;;;4976716;28;20528;-75
2021/05/02 03:19:27;;;;;;;9.40;5.60;;;10.50;1.00;;;;;;4990543;28;20188;-75
2021/05/02 03:22:12;;;;;;;9.70;5.20;;;10.50;1.00;;;;;;4994650;28;20504;-75
2021/05/02 03:24:43;;;;;;;9.50;5.50;;;10.20;1.00;;;;;;4996304;28;20413;-76
2021/05/02 03:27:22;;;;;;;10.80;5.20;;;10.60;1.00;;;;;;4995881;28;20507;-76
2021/05/02 03:30:43;;;;;;;10.73;5.70;;;10.50;1.00;;;;;;4996420;28;20401;-76
2021/05/02 03:33:33;;;;;;;11.10;4.80;;;10.60;1.00;;;;;;4996619;28;20489;-76
2021/05/02 03:36:08;;;;;;;6.20;4.03;;;10.40;1.00;;;;;;4995531;28;20416;-76
2021/05/02 03:38:51;;;;;;;6.67;4.80;;;10.40;1.00;;;;;;4996041;28;20430;-76
2021/05/02 03:41:20;;;;;;;8.80;5.10;;;10.30;1.00;;;;;;4983767;28;20927;-75
2021/05/02 03:43:56;;;;;;;27.93;5.30;;;10.30;1.00;;;;;;4995671;28;20430;-75
2021/05/02 03:46:26;;;;;;;8.80;5.20;;;;;;;;;;4995636;28;20962;-75
2021/05/02 03:49:00;;;;;;;10.70;6.00;;;10.20;1.00;;;;;;4995475;28;20421;-75
2021/05/02 03:51:39;;;;;;;10.43;5.50;;;10.20;1.00;;;;;;4995488;28;20451;-75
2021/05/02 03:54:06;;;;;;;11.20;6.17;;;10.10;1.00;;;;;;4995865;28;20475;-76
2021/05/02 03:56:44;;;;;;;8.30;4.83;;;;;;;;;;4995705;28;20907;-76
2021/05/02 03:59:19;;;;;;;11.27;5.70;;;10.00;1.00;;;;;;4995601;28;20417;-76
2021/05/02 04:02:02;;;;;;;11.53;6.40;;;;;;;;;;4995630;28;20388;-76
2021/05/02 04:04:38;;;;;;;14.20;6.40;;;;;;;;;;4995335;28;20880;-76
2021/05/02 04:07:10;;;;;;;14.20;6.43;;;;;;;;;;4993766;28;20468;-76
2021/05/02 04:09:47;;;;;;;7.13;5.60;;;9.90;1.00;;;;;;4994261;28;20432;-76
2021/05/02 04:12:14;;;;;;;10.77;5.87;;;;;;;;;;4995113;28;20431;-76
2021/05/02 04:14:41;;;;;;;21.20;7.10;;;;;;;;;;4989370;28;20618;-76
2021/05/02 04:17:13;;;;;;;9.03;6.10;;;9.80;1.00;;;;;;4992389;28;20429;-76
2021/05/02 04:19:52;;;;;;;10.10;6.50;;;9.80;1.00;;;;;;4995067;28;20930;-76
2021/05/02 04:22:30;;;;;;;10.00;6.33;;;;;;;;;;4991780;28;20433;-76
2021/05/02 04:24:55;;;;;;;14.87;7.93;;;9.80;1.00;;;;;;4977937;28;20426;-76
2021/05/02 04:27:21;;;;;;;16.60;7.53;;;;;;;;;;4994683;28;20457;-76
2021/05/02 04:29:50;;;;;;;8.83;6.33;;;;;;;;;;5010076;28;20170;-77
2021/05/02 04:32:20;;;;;;;13.53;7.40;;;;;;;;;;4994781;28;20775;-77
2021/05/02 04:35:04;;;;;;;14.77;7.73;;;9.70;1.00;;;;;;4975603;28;21008;-76
2021/05/02 04:37:38;;;;;;;11.20;6.57;;;;;;;;;;4975227;28;20409;-76
2021/05/02 04:40:08;;;;;;;11.67;7.10;;;9.90;1.00;;;;;;4987497;28;20985;-76
2021/05/02 04:42:38;;;;;;;11.03;6.57;;;9.90;1.00;;;;;;4994884;28;20477;-76
2021/05/02 04:45:08;;;;;;;9.30;5.90;;;9.90;1.00;;;;;;4994530;28;20754;-76
2021/05/02 04:47:44;;;;;;;10.83;6.90;;;;;;;;;;4993382;28;20461;-76
2021/05/02 04:50:10;;;;;;;8.73;6.80;;;;;;;;;;4994884;28;20396;-76
2021/05/02 04:52:40;;;;;;;12.30;6.53;;;;;;;;;;4994836;28;20413;-76
2021/05/02 04:55:08;;;;;;;11.93;7.47;;;;;;;;;;4993351;28;20470;-75
2021/05/02 04:57:34;;;;;;;14.90;7.90;;;;;;;;;;4994261;28;20808;-75
2021/05/02 05:00:08;;;;;;;18.83;8.57;;;;;;;;;;4994052;28;20903;-75
2021/05/02 05:02:34;;;;;;;14.00;7.90;;;;;;;;;;5009388;28;20528;-75
2021/05/02 05:05:00;;;;;;;16.17;7.13;;;;;;;;;;4993707;28;20939;-75
2021/05/02 05:07:26;;;;;;;15.23;8.27;;;;;;;;;;4993376;28;20449;-75
2021/05/02 05:09:56;;;;;;;14.60;8.17;;;;;;;;;;4994534;28;20954;-76
2021/05/02 05:12:26;;;;;;;15.20;7.80;;;;;;;;;;5009536;28;20428;-76
2021/05/02 05:14:56;;;;;;;13.30;7.73;;;;;;;;;;5002949;28;20868;-76
2021/05/02 05:17:43;;;;;;;16.67;8.97;;;9.50;1.00;;;;;;4988908;28;20939;-76
2021/05/02 05:20:10;;;;;;;20.43;10.07;;;;;;;;;;5009417;28;20965;-76
2021/05/02 05:22:44;;;;;;;15.20;9.30;;;;;;;;;;4989132;28;20426;-76
2021/05/02 05:25:10;;;;;;;20.10;8.57;;;9.20;1.00;;;;;;4993099;28;20490;-75
2021/05/02 05:27:36;;;;;;;16.83;9.17;;;;;;;;;;4992973;28;20476;-75
2021/05/02 05:30:04;;;;;;;17.83;9.23;;;9.30;1.00;;;;;;4994301;28;20386;-75
2021/05/02 05:32:32;;;;;;;18.70;10.03;;;;;;;;;;4994464;28;20451;-75
2021/05/02 05:34:58;;;;;;;21.47;10.20;;;;;;;;;;4994321;28;20390;-75
2021/05/02 05:37:26;;;;;;;19.60;9.50;;;;;;;;;;4994129;28;20393;-75
2021/05/02 05:39:56;;;;;;;21.23;10.60;;;;;;;;;;4994097;28;20492;-75
2021/05/02 05:42:26;;;;;;;25.30;10.73;;;;;;;;;;4994677;28;20401;-75
2021/05/02 05:44:56;;;;;;;23.17;11.53;;;;;;;;;;4993047;28;20421;-75
2021/05/02 05:47:50;;;;;;;18.77;10.30;;;9.50;1.00;;;;;;4994355;28;20948;-75
2021/05/02 05:50:16;;;;;;;22.13;10.47;;;;;;;;;;4993834;28;20409;-75
2021/05/02 05:52:51;;;;;;;24.47;11.30;;;9.40;1.00;;;;;;4997521;28;20753;-75
2021/05/02 05:55:18;;;;;;;26.27;11.70;;;9.50;1.00;;;;;;4998141;28;20392;-75
2021/05/02 05:58:13;;;;;;;20.83;11.07;;;9.50;1.00;;;;;;4997359;28;20420;-82
2021/05/02 06:04:15;;;;;;;19.13;10.40;;;9.60;1.00;;;;;;4995443;28;20915;-77
2021/05/02 06:07:07;;;;;;;18.57;10.10;;;9.60;1.00;;;;;;4978218;28;20864;-77
2021/05/02 06:09:50;;;;;;;21.40;11.37;;;9.60;1.00;;;;;;4988489;28;20466;-77
2021/05/02 06:12:43;;;;;;;22.00;10.40;;;9.70;1.00;;;;;;4997745;28;20396;-75
2021/05/02 06:15:14;;;;;;;20.73;9.87;;;;;;;;;;4991556;28;20471;-75
2021/05/02 06:17:44;;;;;;;23.37;11.63;;;9.60;1.00;;;;;;4995665;28;20439;-76
2021/05/02 06:20:14;;;;;;;25.50;9.40;;;;;;;;;;4976828;28;20425;-75
2021/05/02 06:22:40;;;;;;;26.60;10.93;;;9.70;1.00;;;;;;4982794;28;20420;-72
2021/05/02 06:25:07;;;;;;;22.37;10.80;;;9.40;1.00;;;;;;4996871;28;20505;-71
2021/05/02 06:27:44;;;;;;;21.77;8.90;;;;;;;;;;4997307;28;20640;-78
2021/05/02 06:30:14;;;;;;;23.50;10.87;;;;;;;;;;4977631;28;20394;-77
2021/05/02 06:32:44;;;;;;;20.27;10.10;;;;;;;;;;4977618;28;20735;-77
2021/05/02 06:35:14;;;;;;;16.30;8.13;;;;;;;;;;4977503;28;20989;-75
2021/05/02 06:37:44;;;;;;;24.80;10.33;;;;;;;;;;4986281;28;20899;-76
2021/05/02 06:40:10;;;;;;;20.80;9.97;;;9.20;1.00;;;;;;4996897;28;20401;-76
2021/05/02 06:42:36;;;;;;;20.60;9.83;;;9.40;1.00;;;;;;4997168;28;20908;-76
2021/05/02 06:45:04;;;;;;;21.70;9.10;;;9.40;1.00;;;;;;4996737;28;20499;-76
2021/05/02 06:47:30;;;;;;;27.33;9.63;;;;;;;;;;4997047;28;20209;-76
2021/05/02 06:49:56;;;;;;;18.47;9.70;;;;;;;;;;4996875;28;20401;-75
2021/05/02 06:52:26;;;;;;;17.73;9.60;;;9.60;1.00;;;;;;4996767;28;20532;-76
2021/05/02 06:54:53;;;;;;;20.70;9.17;;;9.90;1.00;;;;;;4995625;28;20413;-77
2021/05/02 06:57:32;;;;;;;16.13;8.67;;;9.80;1.00;;;;;;4997212;28;20807;-75
2021/05/02 07:00:03;;;;;;;18.00;9.00;;;10.20;1.00;;;;;;4996360;28;20420;-76
2021/05/02 07:02:38;;;;;;;18.30;8.63;;;;;;;;;;4994427;28;20516;-76
2021/05/02 07:05:14;;;;;;;15.43;8.50;;;;;;;;;;4984441;28;20427;-75
2021/05/02 07:07:52;;;;;;;17.60;8.17;;;10.40;1.00;;;;;;4995064;28;20452;-76
2021/05/02 07:10:43;;;;;;;20.47;9.03;;;10.50;1.00;;;;;;4977549;28;20477;-75
2021/05/02 07:13:27;;;;;;;15.67;8.47;;;;;;;;;;4996938;28;20386;-76
2021/05/02 07:15:59;;;;;;;23.33;8.37;;;10.40;1.00;;;;;;4992236;28;20524;-75
2021/05/02 07:18:40;;;;;;;16.33;7.10;;;10.40;1.00;;;;;;4981671;28;20798;-75
2021/05/02 07:21:07;;;;;;;11.87;6.40;;;10.80;1.00;;;;;;5011559;28;20830;-75
2021/05/02 07:23:40;;;;;;;14.00;7.17;;;10.90;1.00;;;;;;4984589;28;20807;-75
2021/05/02 07:26:09;;;;;;;10.57;5.80;;;10.80;1.00;;;;;;4987466;28;20476;-75
2021/05/02 07:28:35;;;;;;;10.20;5.00;;;11.00;1.00;;;;;;4994469;28;20980;-75
2021/05/02 07:31:02;;;;;;;9.57;5.27;;;;;;;;;;4996348;28;20397;-75
2021/05/02 07:33:28;;;;;;;11.90;5.43;;;;;;;;;;4996038;28;20536;-76
2021/05/02 07:35:56;;;;;;;13.03;5.80;;;;;;;;;;4996007;28;20512;-76
2021/05/02 07:38:23;;;;;;;11.67;5.33;;;11.10;1.00;;;;;;4994158;28;20413;-75
2021/05/02 07:40:49;;;;;;;14.73;5.50;;;;;;;;;;4994302;28;20475;-75
2021/05/02 07:43:20;;;;;;;17.47;6.93;;;;;;;;;;4991276;28;20988;-75
2021/05/02 07:45:50;;;;;;;13.27;5.80;;;;;;;;;;4996011;28;20398;-76
2021/05/02 07:48:20;;;;;;;15.40;5.97;;;;;;;;;;4995691;28;20421;-76
2021/05/02 07:51:09;;;;;;;15.70;6.27;;;11.20;1.00;;;;;;4994799;28;20900;-76
2021/05/02 07:53:38;;;;;;;13.80;6.07;;;;;;;;;;4979205;28;20424;-76
2021/05/02 07:56:37;;;;;;;7.90;5.13;;;11.30;1.00;;;;;;4990211;28;20430;-76
2021/05/02 07:59:14;;;;;;;12.93;5.17;;;;;;;;;;4982861;28;20516;-75
2021/05/02 08:01:44;;;;;;;10.73;5.27;;;;;;;;;;4987820;28;20413;-75
2021/05/02 08:04:14;;;;;;;14.23;5.40;;;;;;;;;;4995121;28;20468;-76
2021/05/02 08:06:44;;;;;;;9.83;6.10;;;;;;;;;;4993390;28;20449;-76
2021/05/02 08:09:14;;;;;;;11.20;5.70;;;;;;;;;;4993966;28;20461;-75
2021/05/02 08:11:44;;;;;;;11.60;6.00;;;;;;;;;;4977747;28;20417;-76
2021/05/02 08:14:10;;;;;;;12.67;5.43;;;;;;;;;;4978499;28;20527;-76
2021/05/02 08:16:36;;;;;;;11.57;5.77;;;;;;;;;;4984779;28;20836;-77
2021/05/02 08:19:03;;;;;;;10.37;5.17;;;12.20;1.00;;;;;;4993374;28;20436;-77
2021/05/02 08:21:29;;;;;;;13.70;5.83;;;;;;;;;;4982704;28;20441;-77
2021/05/02 08:23:55;;;;;;;7.40;4.20;;;;;;;;;;4987958;28;20927;-76
2021/05/02 08:26:21;;;;;;;18.73;5.70;;;12.20;1.00;;;;;;4991805;28;20460;-76
2021/05/02 08:28:50;;;;;;;9.70;4.33;;;;;;;;;;4991735;28;20559;-80
2021/05/02 08:31:16;;;;;;;12.37;4.90;;;;;;;;;;4993966;28;20189;-79
2021/05/02 08:33:42;;;;;;;11.90;4.90;;;;;;;;;;4983009;28;20422;-79
2021/05/02 08:36:14;;;;;;;8.83;4.87;;;;;;;;;;4982535;28;20858;-76
2021/05/02 08:38:44;;;;;;;10.90;4.90;;;;;;;;;;4992738;28;20419;-76
2021/05/02 08:41:10;;;;;;;6.60;4.10;;;11.80;1.00;;;;;;4990566;28;20472;-76
2021/05/02 08:43:36;;;;;;;7.50;4.87;;;12.30;1.00;;;;;;4982784;28;20424;-76
2021/05/02 08:46:09;;;;;;;6.63;4.47;;;12.30;1.00;;;;;;4994646;28;20198;-75
2021/05/02 08:48:38;;;;;;;6.90;4.50;;;12.60;1.00;;;;;;5010153;28;20499;-75
2021/05/02 08:51:14;;;;;;;10.27;4.10;;;;;;;;;;4994389;28;20410;-76
2021/05/02 08:53:40;;;;;;;9.17;4.87;;;12.60;1.00;;;;;;4994698;28;20389;-75
2021/05/02 08:56:14;;;;;;;11.30;4.97;;;;;;;;;;4977519;28;20952;-76
2021/05/02 08:58:50;;;;;;;7.03;4.67;;;12.80;1.00;;;;;;4985068;28;20923;-81
2021/05/02 09:08:01;;;;;;;10.87;5.40;;;;;;;;;;4994143;28;20530;-80
2021/05/02 09:10:48;;;;;;;8.23;4.70;;;12.90;1.00;;;;;;4994382;28;20415;-80
2021/05/02 09:13:27;;;;;;;8.03;4.47;;;13.30;1.00;;;;;;4993578;28;20432;-82
2021/05/02 09:16:19;;;;;;;14.47;5.50;;;13.40;1.00;;;;;;4993972;28;20447;-80
2021/05/02 09:18:50;;;;;;;7.23;5.20;;;;;;;;;;4994441;28;20397;-82
2021/05/02 09:21:27;;;;;;;9.20;5.23;;;13.20;1.00;;;;;;4993991;28;20432;-75
2021/05/02 09:23:54;;;;;;;7.23;4.93;;;;;;;;;;4994298;28;20396;-75
2021/05/02 09:26:22;;;;;;;9.50;5.27;;;13.00;1.00;;;;;;4995419;28;20468;-75
2021/05/02 09:28:56;;;;;;;20.63;6.23;;;;;;;;;;4995701;28;20412;-74
2021/05/02 09:31:29;;;;;;;11.20;5.60;;;;;;;;;;4987261;28;20866;-74
2021/05/02 09:34:09;;;;;;;11.07;5.67;;;;;;;;;;4997524;28;20494;-75
2021/05/02 09:36:49;;;;;;;13.80;5.10;;;13.20;1.00;;;;;;4990776;28;20480;-74
2021/05/02 09:39:56;;;;;;;12.77;5.40;;;13.20;1.00;;;;;;4991808;28;20503;-75
2021/05/02 09:42:36;;;;;;;19.30;5.27;;;;;;;;;;4978768;28;20433;-74
2021/05/02 09:45:05;;;;;;;7.10;4.07;;;12.90;1.00;;;;;;4990925;28;20413;-75
2021/05/02 09:47:36;;;;;;;20.07;5.70;;;13.30;1.00;;;;;;4983958;28;20457;-74
2021/05/02 09:50:27;;;;;;;11.83;4.50;;;13.40;1.00;;;;;;4978460;28;20979;-75
2021/05/02 09:53:03;;;;;;;8.73;5.10;;;13.60;1.00;;;;;;4985698;28;20900;-76
2021/05/02 09:55:46;;;;;;;7.50;4.67;;;;;;;;;;4997708;28;20465;-75
2021/05/02 09:58:21;;;;;;;5.27;3.87;;;13.80;1.00;;;;;;4997842;28;20408;-76
2021/05/02 10:00:56;;;;;;;12.63;4.83;;;13.60;1.00;;;;;;4997731;28;20401;-75
2021/05/02 10:03:44;;;;;;;7.40;4.13;;;13.70;1.00;;;;;;4997597;28;20416;-75
2021/05/02 10:06:15;;;;;;;8.60;4.73;;;13.60;1.00;;;;;;4998036;28;20958;-75
2021/05/02 10:08:44;;;;;;;11.60;4.37;;;;;;;;;;4996599;28;20807;-75
2021/05/02 10:11:14;;;;;;;5.00;3.77;;;13.60;1.00;;;;;;4997528;28;20914;-75
2021/05/02 10:13:44;;;;;;;6.23;3.50;;;13.70;1.00;;;;;;4997584;28;20421;-75
2021/05/02 10:16:15;;;;;;;5.47;3.50;;;;;;;;;;4989622;28;20461;-75
2021/05/02 10:18:45;;;;;;;5.60;3.63;;;;;;;;;;4997702;28;20397;-71
2021/05/02 10:21:14;;;;;;;6.30;4.60;;;14.10;1.00;;;;;;4991787;28;20417;-78
2021/05/02 10:23:45;;;;;;;7.33;4.20;;;14.20;1.00;;;;;;4978348;28;20438;-75
2021/05/02 10:26:11;;;;;;;6.83;3.80;;;14.00;1.00;;;;;;4977566;28;20530;-75
2021/05/02 10:28:47;;;;;;;7.40;4.50;;;13.90;1.00;;;;;;4978347;28;20888;-75
2021/05/02 10:31:15;;;;;;;5.90;3.60;;;;;;;;;;4983335;28;20416;-76
2021/05/02 10:33:45;;;;;;;7.10;3.60;;;13.60;1.00;;;;;;4997344;28;20452;-75
2021/05/02 10:36:21;;;;;;;6.00;4.07;;;13.80;1.00;;;;;;4986314;28;20438;-75
2021/05/02 10:39:02;;;;;;;6.33;4.20;;;14.20;1.00;;;;;;4993303;28;20591;-75
2021/05/02 10:41:49;;;;;;;10.13;4.53;;;;;;;;;;4977660;28;20425;-75
2021/05/02 10:44:20;;;;;;;5.37;3.57;;;;;;;;;;4984248;28;20425;-75
2021/05/02 10:46:53;;;;;;;10.30;4.20;;;13.60;1.00;;;;;;4985903;28;20460;-75
2021/05/02 10:49:20;;;;;;;7.13;3.27;;;13.70;1.00;;;;;;4997018;28;20876;-75
2021/05/02 10:51:46;;;;;;;12.70;3.27;;;13.70;1.00;;;;;;4997140;28;20398;-75
2021/05/02 10:54:19;;;;;;;3.43;2.93;;;14.00;1.00;;;;;;4996670;28;20919;-75
2021/05/02 10:56:50;;;;;;;5.20;3.77;;;13.70;1.00;;;;;;5003069;28;20427;-76
2021/05/02 10:59:44;;;;;;;7.00;4.33;;;13.60;1.00;;;;;;4996227;28;20436;-76
2021/05/02 11:02:54;;;;;;;6.23;3.50;;;13.70;1.00;;;;;;4995330;28;20521;-77
2021/05/02 11:05:22;;;;;;;6.27;3.63;;;13.90;1.00;;;;;;4967232;28;20488;-77
2021/05/02 11:07:55;;;;;;;4.57;3.20;;;14.00;1.00;;;;;;4971627;28;20473;-73
2021/05/02 11:10:49;;;;;;;4.93;3.13;;;13.50;1.00;;;;;;4974200;28;20905;-75
2021/05/02 11:13:25;;;;;;;4.23;3.30;;;13.50;1.00;;;;;;4975158;28;20402;-72
2021/05/02 11:15:51;;;;;;;5.90;3.40;;;13.70;1.00;;;;;;4958728;28;20513;-75
2021/05/02 11:18:24;;;;;;;8.03;3.23;;;13.70;1.00;;;;;;4974770;28;20505;-75
2021/05/02 11:20:51;;;;;;;9.17;2.83;;;13.70;1.00;;;;;;4974462;28;20453;-75
2021/05/02 11:23:53;;;;;;;2.80;2.60;;;13.90;1.00;;;;;;4974710;28;20422;-75
2021/05/02 11:30:10;;;;;;;2.93;2.47;;;14.10;1.00;;;;;;4955766;29;20514;-75
2021/05/02 11:32:45;;;;;;;6.40;2.97;;;14.40;1.00;;;;;;4898693;29;20409;-76
2021/05/02 11:35:20;;;;;;;5.70;3.00;;;14.50;1.00;;;;;;4894571;29;20425;-75
2021/05/02 11:37:50;;;;;;;3.43;2.57;;;;;;;;;;4896598;29;20447;-77
2021/05/02 11:40:19;;;;;;;7.00;3.03;;;;;;;;;;4898093;29;20421;-77
2021/05/02 11:43:16;;;;;;;10.50;3.23;;;13.50;1.00;;;;;;4882559;29;20435;-78
2021/05/02 11:45:55;;;;;;;5.80;2.60;;;13.10;1.00;;;;;;4879560;29;20513;-78
2021/05/02 11:48:33;;;;;;;4.97;2.97;;;13.00;1.00;;;;;;4863380;29;20463;-78
2021/05/02 11:51:04;;;;;;;8.07;3.40;;;12.80;1.00;;;;;;4879111;29;20487;-77
2021/05/02 11:53:39;;;;;;;3.50;2.90;;;13.00;1.00;;;;;;4878424;29;20597;-77
2021/05/02 11:56:45;;;;;;;6.60;3.20;;;13.20;1.00;;;;;;4879020;29;20437;-77
2021/05/02 11:59:11;;;;;;;4.33;3.33;;;13.10;1.00;;;;;;4879239;29;20434;-75
2021/05/02 12:01:40;;;;;;;9.93;4.03;;;13.30;1.00;;;;;;4879106;29;20910;-74
2021/05/02 12:04:10;;;;;;;5.07;3.27;;;13.60;1.00;;;;;;4924655;29;20438;-76
2021/05/02 12:06:38;;;;;;;8.20;3.87;;;13.50;1.00;;;;;;4972373;28;20464;-74
2021/05/02 12:09:22;;;;;;;3.97;3.17;;;13.90;1.00;;;;;;4995862;28;20402;-76
2021/05/02 12:12:03;;;;;;;8.33;3.30;;;14.20;1.00;;;;;;4995668;28;20447;-75
2021/05/02 12:14:44;;;;;;;4.73;3.40;;;14.50;1.00;;;;;;4995804;28;20420;-76
2021/05/02 12:17:10;;;;;;;4.40;3.27;;;;;;;;;;4995176;28;21096;-76
2021/05/02 12:19:37;;;;;;;7.73;4.17;;;;;;;;;;4995243;28;20372;-76
2021/05/02 12:22:14;;;;;;;4.03;3.10;;;;;;;;;;4995000;28;20745;-76
2021/05/02 12:24:40;;;;;;;5.30;3.63;;;;;;;;;;5015464;28;20423;-76
2021/05/02 12:27:14;;;;;;;6.53;3.20;;;;;;;;;;5000731;28;20917;-76
2021/05/02 12:29:53;;;;;;;5.13;3.70;;;15.10;1.00;;;;;;4995496;28;20829;-76
2021/05/02 12:32:19;;;;;;;4.70;3.43;;;;;;;;;;4994763;28;20401;-76
2021/05/02 12:34:51;;;;;;;9.60;3.90;;;15.40;1.00;;;;;;4993021;28;20389;-76
2021/05/02 12:37:34;;;;;;;3.87;2.80;;;14.90;1.00;;;;;;4989047;28;20425;-75
2021/05/02 12:40:06;;;;;;;4.43;3.07;;;14.40;1.00;;;;;;4995181;28;20413;-76
2021/05/02 12:42:50;;;;;;;5.43;3.07;;;14.20;1.00;;;;;;4994987;28;20721;-76
2021/05/02 12:45:42;;;;;;;3.40;2.40;;;14.00;1.00;;;;;;4994992;28;20424;-76
2021/05/02 12:48:23;;;;;;;2.90;2.60;;;13.80;1.00;;;;;;4994845;28;20402;-76
2021/05/02 12:50:50;;;;;;;7.33;2.40;;;;;;;;;;4994514;28;20411;-75
2021/05/02 12:53:15;;;;;;;11.70;3.37;;;13.70;1.00;;;;;;4994558;28;20880;-76
2021/05/02 12:55:52;;;;;;;3.83;2.60;;;14.00;1.00;;;;;;4994501;28;20425;-76
2021/05/02 12:58:40;;;;;;;4.57;2.50;;;14.20;1.00;;;;;;4994756;28;20193;-76
2021/05/02 13:01:16;;;;;;;3.67;2.83;;;14.80;1.00;;;;;;4994232;28;20423;-76
2021/05/02 13:03:58;;;;;;;4.50;2.57;;;15.30;1.00;;;;;;4994418;28;20416;-76
2021/05/02 13:06:44;;;;;;;3.93;2.67;;;15.40;1.00;;;;;;4994474;28;21022;-76
2021/05/02 13:09:37;;;;;;;6.00;3.00;;;15.50;1.00;;;;;;4994606;28;20450;-76
2021/05/02 13:12:04;;;;;;;6.70;3.17;;;15.30;1.00;;;;;;4994761;28;20393;-76
2021/05/02 13:14:30;;;;;;;3.93;2.63;;;15.30;1.00;;;;;;4994689;28;20444;-75
2021/05/02 13:17:00;;;;;;;3.43;2.63;;;15.40;1.00;;;;;;4994460;28;20401;-76
2021/05/02 13:19:31;;;;;;;2.70;2.30;;;15.50;1.00;;;;;;4993036;28;20174;-76
2021/05/02 13:22:20;;;;;;;6.20;2.57;;;15.50;1.00;;;;;;4994238;28;20810;-76
2021/05/02 13:25:01;;;;;;;4.30;2.70;;;;;;;;;;4994364;28;20380;-76
2021/05/02 13:27:38;;;;;;;8.90;3.13;;;15.10;1.00;;;;;;4993246;28;20440;-75
2021/05/02 13:30:40;;;;;;;4.13;2.90;;;14.90;1.00;;;;;;4985364;28;20425;-76
2021/05/02 13:33:11;;;;;;;3.73;2.80;;;14.70;1.00;;;;;;4953616;29;20452;-75
2021/05/02 13:35:50;;;;;;;3.20;2.70;;;;;;;;;;4965599;28;20437;-76
2021/05/02 13:38:20;;;;;;;4.80;2.20;;;;;;;;;;4971541;28;20428;-76
2021/05/02 13:40:46;;;;;;;3.97;2.73;;;;;;;;;;4972898;28;20515;-76
2021/05/02 13:43:14;;;;;;;3.30;2.60;;;;;;;;;;4970702;28;20418;-76
2021/05/02 13:45:41;;;;;;;3.17;2.40;;;;;;;;;;4973185;28;20386;-76
2021/05/02 13:48:20;;;;;;;8.53;2.10;;;;;;;;;;4963969;28;20465;-76
2021/05/02 13:50:46;;;;;;;4.47;2.80;;;;;;;;;;4948226;29;20433;-75
2021/05/02 13:53:36;;;;;;;6.60;2.93;;;15.20;1.00;;;;;;4953707;29;20457;-76
2021/05/02 13:56:02;;;;;;;4.83;2.10;;;15.20;1.00;;;;;;4962671;28;20413;-76
2021/05/02 13:58:32;;;;;;;2.70;2.40;;;;;;;;;;4972575;28;20412;-76
2021/05/02 14:01:02;;;;;;;2.43;2.17;;;;;;;;;;4972449;28;20441;-76
2021/05/02 14:03:39;;;;;;;5.23;2.67;;;;;;;;;;4971491;28;20842;-76
2021/05/02 14:06:05;;;;;;;3.93;2.33;;;;;;;;;;4946880;28;20938;-76
2021/05/02 14:08:31;;;;;;;13.33;2.97;;;;;;;;;;4974002;28;20398;-76
2021/05/02 14:11:04;;;;;;;3.13;2.33;;;14.80;1.00;;;;;;4973982;28;20398;-76
2021/05/02 14:13:31;;;;;;;2.30;1.87;;;;;;;;;;4981021;28;20450;-76
2021/05/02 14:16:03;;;;;;;4.20;2.30;;;15.30;1.00;;;;;;4997589;28;20368;-76
2021/05/02 14:18:29;;;;;;;6.87;2.47;;;;;;;;;;4997492;28;20416;-76